Time;durP1;ratioP1;P1;durP2;ratioP2;P2;SDS_P1;SDS_P2;PMS_P1;PMS_P2;Temp;Humidity;BMP_temperature;BMP_pressure;BME280_temperature;BME280_humidity;BME280_pressure;Samples;Min_cycle;Max_cycle;Signal;HPM_P1;HPM_P2
2021/11/20 00:00:55;;;;;;;;;;;;;;;20.72;50.00;100620.44;2085117;28;19924;-46
2021/11/20 00:01:56;;;;;;;;;;;;;;;20.73;49.92;100621.34;2090555;28;20015;-50
2021/11/20 00:02:57;;;;;;;;;;;;;;;20.72;49.98;100616.84;2087503;28;19917;-46
2021/11/20 00:03:57;;;;;;;;;;;;;;;20.71;49.77;100620.63;2078644;28;20208;-46
2021/11/20 00:04:57;;;;;;;;;;;;;;;20.72;49.75;100619.59;2081992;28;20827;-46
2021/11/20 00:05:58;;;;;;;;;;;;;;;20.72;49.69;100619.59;2092611;28;20401;-45
2021/11/20 00:07:03;;;;;;;;;;;;;;;20.72;49.68;100620.44;2083646;28;19908;-47
2021/11/20 00:08:05;;;;;;;;;;;;;;;20.72;49.94;100614.13;2083676;28;19916;-44
2021/11/20 00:09:07;;;;;;;;;;;;;;;20.72;49.92;100616.84;2081574;28;19917;-40
2021/11/20 00:10:09;;;;;;;;;;;;;;;20.68;49.86;100618.19;2080406;28;20306;-40
2021/11/20 00:11:11;;;;;;;;;;;;;;;20.64;49.89;100614.00;2082675;28;20604;-45
2021/11/20 00:12:17;;;;;;;;;;;;;;;20.62;49.92;100613.28;2084021;28;19940;-46
2021/11/20 00:13:17;;;;;;;;;;;;;;;20.64;50.15;100611.25;2082869;28;19916;-48
2021/11/20 00:14:20;;;;;;;;;;;;;;;20.64;49.90;100614.00;2083829;28;19952;-45
2021/11/20 00:15:23;;;;;;;;;;;;;;;20.67;49.98;100613.69;2081463;28;19915;-46
2021/11/20 00:16:25;;;;;;;;;;;;;;;20.69;49.96;100614.41;2085746;28;19942;-45
2021/11/20 00:17:26;;;;;;;;;;;;;;;20.71;50.08;100616.00;2083349;28;19909;-46
2021/11/20 00:18:29;;;;;;;;;;;;;;;20.72;49.82;100604.00;2082362;28;20731;-47
2021/11/20 00:19:30;;;;;;;;;;;;;;;20.75;49.81;100605.63;2084047;28;20238;-45
2021/11/20 00:20:32;;;;;;;;;;;;;;;20.76;49.69;100602.72;2085164;28;20269;-45
2021/11/20 00:21:34;;;;;;;;;;;;;;;20.78;49.74;100610.81;2083352;28;19917;-45
2021/11/20 00:22:36;;;;;;;;;;;;;;;20.80;49.61;100611.53;2089783;28;19915;-47
2021/11/20 00:23:42;;;;;;;;;;;;;;;20.83;49.63;100604.88;2081170;28;19954;-45
2021/11/20 00:24:44;;;;;;;;;;;;;;;20.83;49.46;100603.00;2081373;28;19963;-45
2021/11/20 00:25:52;;;;;;;;;;;;;;;20.84;49.50;100607.44;2085293;28;20350;-47
2021/11/20 00:26:53;;;;;;;;;;;;;;;20.86;49.42;100599.94;2083111;28;20340;-49
2021/11/20 00:27:54;;;;;;;;;;;;;;;20.86;49.24;100602.69;2081448;28;19916;-48
2021/11/20 00:30:04;;;;;;;;;;;;;;;20.88;49.43;100594.34;2079257;28;19929;-49
2021/11/20 00:31:06;;;;;;;;;;;;;;;20.88;49.21;100589.72;2081640;28;19924;-46
2021/11/20 00:32:10;;;;;;;;;;;;;;;20.89;49.22;100596.91;2083304;28;20225;-46
2021/11/20 00:33:10;;;;;;;;;;;;;;;20.90;49.17;100586.84;2081827;28;19982;-48
2021/11/20 00:34:12;;;;;;;;;;;;;;;20.90;49.19;100587.69;2083391;28;19917;-47
2021/11/20 00:35:14;;;;;;;;;;;;;;;20.90;49.14;100595.91;2080949;28;20011;-47
2021/11/20 00:36:15;;;;;;;;;;;;;;;20.92;49.36;100585.66;2082323;28;19917;-46
2021/11/20 00:37:16;;;;;;;;;;;;;;;20.90;49.30;100587.69;2082832;28;19923;-45
2021/11/20 00:38:16;;;;;;;;;;;;;;;20.91;49.23;100589.41;2081828;28;19920;-45
2021/11/20 00:39:18;;;;;;;;;;;;;;;20.91;49.18;100586.66;2083134;28;19923;-45
2021/11/20 00:40:31;;;;;;;;;;;;;;;20.91;49.11;100585.81;2086569;28;20326;-45
2021/11/20 00:41:31;;;;;;;;;;;;;;;20.90;49.31;100590.44;2083134;28;19928;-46
2021/11/20 00:42:31;;;;;;;;;;;;;;;20.91;49.35;100583.06;2087041;28;20520;-47
2021/11/20 00:43:32;;;;;;;;;;;;;;;20.89;49.16;100580.47;2083646;28;19982;-46
2021/11/20 00:44:32;;;;;;;;;;;;;;;20.89;49.20;100585.94;2085101;28;19915;-46
2021/11/20 00:45:33;;;;;;;;;;;;;;;20.90;49.22;100579.47;2079763;28;20550;-47
2021/11/20 00:46:34;;;;;;;;;;;;;;;20.90;49.07;100576.72;2084959;28;19983;-46
2021/11/20 00:47:35;;;;;;;;;;;;;;;20.90;49.19;100578.59;2080400;28;19923;-46
2021/11/20 00:48:36;;;;;;;;;;;;;;;20.89;49.16;100574.97;2078543;28;19915;-45
2021/11/20 00:49:37;;;;;;;;;;;;;;;20.90;49.15;100581.34;2081722;28;19958;-47
2021/11/20 00:50:38;;;;;;;;;;;;;;;20.90;49.08;100581.34;2084948;28;19990;-46
2021/11/20 00:51:39;;;;;;;;;;;;;;;20.90;49.13;100575.88;2081709;28;19935;-47
2021/11/20 00:52:40;;;;;;;;;;;;;;;20.88;49.32;100573.25;2082918;28;20384;-46
2021/11/20 00:53:41;;;;;;;;;;;;;;;20.90;49.23;100576.72;2096558;28;20003;-47
2021/11/20 00:54:42;;;;;;;;;;;;;;;20.89;49.36;100574.13;2092340;28;19916;-46
2021/11/20 00:55:42;;;;;;;;;;;;;;;20.88;49.23;100567.78;2081788;28;19916;-46
2021/11/20 00:56:43;;;;;;;;;;;;;;;20.89;49.37;100580.47;2086244;28;20067;-45
2021/11/20 00:57:44;;;;;;;;;;;;;;;20.90;49.31;100570.38;2081393;28;19952;-45
2021/11/20 00:58:44;;;;;;;;;;;;;;;20.89;49.08;100564.03;2080277;28;19967;-45
2021/11/20 00:59:44;;;;;;;;;;;;;;;20.89;49.20;100564.03;2086063;28;19912;-45
2021/11/20 01:00:48;;;;;;;;;;;;;;;20.88;49.38;100562.31;2098978;28;20417;-46
2021/11/20 01:01:50;;;;;;;;;;;;;;;20.89;49.17;100561.28;2097403;28;19922;-45
2021/11/20 01:02:50;;;;;;;;;;;;;;;20.90;49.30;100564.91;2083039;28;19909;-46
2021/11/20 01:03:51;;;;;;;;;;;;;;;20.90;49.29;100564.91;2080126;28;19917;-46
2021/11/20 01:04:52;;;;;;;;;;;;;;;20.91;48.98;100561.13;2085676;28;19958;-45
2021/11/20 01:05:53;;;;;;;;;;;;;;;20.89;49.15;100564.03;2083618;28;20305;-46
2021/11/20 01:06:54;;;;;;;;;;;;;;;20.90;49.24;100563.03;2083799;28;19918;-46
2021/11/20 01:07:55;;;;;;;;;;;;;;;20.89;49.20;100561.28;2085630;28;20538;-45
2021/11/20 01:08:55;;;;;;;;;;;;;;;20.92;48.98;100562.84;2080912;28;19985;-46
2021/11/20 01:09:55;;;;;;;;;;;;;;;20.90;49.03;100560.28;2081978;28;19908;-47
2021/11/20 01:10:58;;;;;;;;;;;;;;;20.90;49.03;100557.53;2088658;28;20538;-47
2021/11/20 01:12:05;;;;;;;;;;;;;;;20.91;49.19;100556.50;2084274;28;19920;-46
2021/11/20 01:13:05;;;;;;;;;;;;;;;20.91;49.14;100558.41;2086954;28;20167;-48
2021/11/20 01:14:07;;;;;;;;;;;;;;;20.91;49.13;100563.88;2078319;28;19916;-48
2021/11/20 01:15:11;;;;;;;;;;;;;;;20.91;49.22;100548.28;2081992;28;20310;-46
2021/11/20 01:16:12;;;;;;;;;;;;;;;20.92;48.88;100557.38;2083748;28;19939;-46
2021/11/20 01:17:13;;;;;;;;;;;;;;;20.91;48.87;100551.03;2074065;28;20192;-48
2021/11/20 01:18:14;;;;;;;;;;;;;;;20.91;49.14;100550.19;2082451;28;20348;-45
2021/11/20 01:19:15;;;;;;;;;;;;;;;20.93;48.88;100554.50;2081689;28;19917;-45
2021/11/20 01:20:17;;;;;;;;;;;;;;;20.93;48.85;100549.00;2083181;28;20360;-47
2021/11/20 01:21:17;;;;;;;;;;;;;;;20.94;49.09;100544.38;2081313;28;20385;-44
2021/11/20 01:22:19;;;;;;;;;;;;;;;20.94;49.13;100541.66;2081613;28;19916;-45
2021/11/20 01:23:21;;;;;;;;;;;;;;;20.96;48.77;100550.59;2083076;28;19960;-46
2021/11/20 01:24:21;;;;;;;;;;;;;;;20.95;48.86;100544.25;2079865;28;20151;-45
2021/11/20 01:25:22;;;;;;;;;;;;;;;20.98;49.00;100546.69;2084431;28;19923;-45
2021/11/20 01:26:23;;;;;;;;;;;;;;;21.00;49.00;100542.94;2081312;28;20666;-45
2021/11/20 01:27:24;;;;;;;;;;;;;;;21.00;48.77;100548.41;2084425;28;20114;-46
2021/11/20 01:28:26;;;;;;;;;;;;;;;21.01;48.78;100545.50;2084059;28;20098;-46
2021/11/20 01:29:26;;;;;;;;;;;;;;;21.01;48.87;100540.03;2083248;28;19939;-45
2021/11/20 01:30:27;;;;;;;;;;;;;;;21.03;48.86;100545.38;2076558;28;19927;-45
2021/11/20 01:31:29;;;;;;;;;;;;;;;21.03;48.74;100537.16;2079715;28;19917;-46
2021/11/20 01:32:29;;;;;;;;;;;;;;;21.05;48.76;100543.34;2083067;28;19923;-46
2021/11/20 01:33:30;;;;;;;;;;;;;;;21.05;48.56;100540.59;2080334;28;19927;-48
2021/11/20 01:34:30;;;;;;;;;;;;;;;21.06;48.76;100543.16;2084746;28;19916;-47
2021/11/20 01:35:31;;;;;;;;;;;;;;;21.06;48.34;100539.56;2079355;28;19920;-46
2021/11/20 01:36:32;;;;;;;;;;;;;;;21.07;48.35;100538.56;2078302;28;19916;-40
2021/11/20 01:37:34;;;;;;;;;;;;;;;21.07;48.56;100533.06;2080255;28;20007;-39
2021/11/20 01:38:34;;;;;;;;;;;;;;;20.97;48.54;100539.47;2081200;28;20177;-39
2021/11/20 01:39:37;;;;;;;;;;;;;;;20.86;48.75;100536.06;2086156;28;19940;-39
2021/11/20 01:40:38;;;;;;;;;;;;;;;20.75;49.00;100545.34;2083365;28;19961;-39
2021/11/20 01:41:40;;;;;;;;;;;;;;;20.67;49.24;100537.84;2089395;28;19959;-39
2021/11/20 01:42:40;;;;;;;;;;;;;;;20.63;49.42;100541.03;2087091;28;19978;-39
2021/11/20 01:43:41;;;;;;;;;;;;;;;20.57;49.45;100541.66;2083028;28;20002;-39
2021/11/20 01:44:41;;;;;;;;;;;;;;;20.52;49.59;100533.84;2084394;28;19943;-39
2021/11/20 01:45:54;;;;;;;;;;;;;;;20.49;49.67;100543.22;2076981;28;19951;-39
2021/11/20 01:46:56;;;;;;;;;;;;;;;20.45;49.81;100538.19;2084880;28;19920;-39
2021/11/20 01:48:31;;;;;;;;;;;;;;;20.46;50.03;100538.06;2090123;28;20427;-39
2021/11/20 01:49:34;;;;;;;;;;;;;;;20.43;49.82;100541.09;2082807;28;20581;-39
2021/11/20 01:50:36;;;;;;;;;;;;;;;20.41;49.92;100537.63;2083783;28;19924;-40
2021/11/20 01:51:40;;;;;;;;;;;;;;;20.39;50.13;100536.91;2081774;28;19974;-39
2021/11/20 01:52:40;;;;;;;;;;;;;;;20.39;50.08;100534.19;2088682;28;20797;-39
2021/11/20 01:53:51;;;;;;;;;;;;;;;20.37;50.13;100536.19;2080386;28;19936;-39
2021/11/20 01:54:58;;;;;;;;;;;;;;;20.36;50.31;100529.00;2084739;28;20199;-40
2021/11/20 01:55:58;;;;;;;;;;;;;;;20.37;50.05;100538.94;2083987;28;19931;-39
2021/11/20 01:56:59;;;;;;;;;;;;;;;20.38;50.38;100537.06;2084860;28;19935;-40
2021/11/20 01:58:12;;;;;;;;;;;;;;;20.38;50.12;100537.91;2084449;28;19908;-39
2021/11/20 01:59:18;;;;;;;;;;;;;;;20.40;50.01;100530.41;2083296;28;20207;-39
2021/11/20 02:00:41;;;;;;;;;;;;;;;20.41;50.23;100526.69;2085016;28;19917;-39
2021/11/20 02:01:44;;;;;;;;;;;;;;;20.45;50.16;100530.81;2066361;28;20072;-39
2021/11/20 02:02:56;;;;;;;;;;;;;;;20.44;50.08;100529.13;2082891;28;20001;-38
2021/11/20 02:04:02;;;;;;;;;;;;;;;20.48;49.95;100527.81;2084269;28;21135;-39
2021/11/20 02:05:11;;;;;;;;;;;;;;;20.50;49.94;100525.78;2086499;28;19991;-39
2021/11/20 02:06:18;;;;;;;;;;;;;;;20.52;49.81;100523.75;2084150;28;20355;-39
2021/11/20 02:07:26;;;;;;;;;;;;;;;20.53;49.68;100527.38;2083868;28;19964;-39
2021/11/20 02:08:33;;;;;;;;;;;;;;;20.55;49.74;100529.00;2087043;28;19916;-39
2021/11/20 02:09:55;;;;;;;;;;;;;;;20.57;49.73;100519.75;2076772;28;20031;-39
2021/11/20 02:11:07;;;;;;;;;;;;;;;20.57;49.64;100523.34;2082765;28;19924;-39
2021/11/20 02:12:13;;;;;;;;;;;;;;;20.59;49.61;100517.72;2085010;28;20153;-39
2021/11/20 02:13:16;;;;;;;;;;;;;;;20.61;49.61;100518.44;2077920;28;20007;-39
2021/11/20 02:14:18;;;;;;;;;;;;;;;20.62;49.65;100522.91;2075910;28;19931;-39
2021/11/20 02:15:24;;;;;;;;;;;;;;;20.63;49.53;100524.59;2077923;28;19920;-39
2021/11/20 02:16:31;;;;;;;;;;;;;;;20.63;49.71;100524.59;2078319;28;20788;-39
2021/11/20 02:17:34;;;;;;;;;;;;;;;20.63;49.73;100521.88;2079734;28;20039;-39
2021/11/20 02:18:37;;;;;;;;;;;;;;;20.65;49.59;100520.75;2078340;28;19916;-39
2021/11/20 02:19:39;;;;;;;;;;;;;;;20.65;49.44;100523.47;2083169;28;20283;-39
2021/11/20 02:20:40;;;;;;;;;;;;;;;20.66;49.40;100518.84;2080048;28;20584;-39
2021/11/20 02:21:40;;;;;;;;;;;;;;;20.69;49.41;100518.53;2084073;28;20234;-39
2021/11/20 02:22:40;;;;;;;;;;;;;;;20.68;49.52;100519.56;2080860;28;19923;-38
2021/11/20 02:23:40;;;;;;;;;;;;;;;20.70;49.43;100514.78;2082639;28;19916;-39
2021/11/20 02:24:40;;;;;;;;;;;;;;;20.70;49.35;100523.00;2082679;28;19946;-39
2021/11/20 02:25:41;;;;;;;;;;;;;;;20.70;49.42;100512.94;2086120;28;19923;-39
2021/11/20 02:26:42;;;;;;;;;;;;;;;20.70;49.35;100509.31;2084765;28;19970;-39
2021/11/20 02:27:46;;;;;;;;;;;;;;;20.71;49.47;100516.53;2081768;28;20102;-40
2021/11/20 02:28:47;;;;;;;;;;;;;;;20.72;49.35;100518.22;2085485;28;19917;-39
2021/11/20 02:29:48;;;;;;;;;;;;;;;20.71;49.14;100513.78;2086715;28;19917;-39
2021/11/20 02:30:49;;;;;;;;;;;;;;;20.70;49.36;100506.56;2085696;28;20002;-39
2021/11/20 02:31:57;;;;;;;;;;;;;;;20.72;49.19;100518.22;2084494;28;19923;-39
2021/11/20 02:33:00;;;;;;;;;;;;;;;20.70;49.31;100503.81;2084890;28;20329;-39
2021/11/20 02:34:01;;;;;;;;;;;;;;;20.69;49.29;100502.97;2081013;28;20254;-39
2021/11/20 02:35:01;;;;;;;;;;;;;;;20.70;49.46;100510.19;2085181;28;19955;-39
2021/11/20 02:36:04;;;;;;;;;;;;;;;20.70;49.16;100503.81;2083267;28;19915;-39
2021/11/20 02:37:07;;;;;;;;;;;;;;;20.69;49.11;100504.84;2083725;28;19958;-39
2021/11/20 02:38:09;;;;;;;;;;;;;;;20.69;49.51;100499.38;2079305;28;19921;-39
2021/11/20 02:39:16;;;;;;;;;;;;;;;20.69;49.21;100502.09;2080517;28;19913;-38
2021/11/20 02:40:17;;;;;;;;;;;;;;;20.68;49.22;100498.50;2084898;28;19920;-39
2021/11/20 02:41:18;;;;;;;;;;;;;;;20.68;49.29;100494.91;2078833;28;20386;-40
2021/11/20 02:42:20;;;;;;;;;;;;;;;20.67;49.36;100496.78;2085637;28;19916;-39
2021/11/20 02:43:21;;;;;;;;;;;;;;;20.69;49.29;100502.97;2085894;28;19917;-39
2021/11/20 02:44:23;;;;;;;;;;;;;;;20.68;49.18;100495.78;2077509;28;20194;-39
2021/11/20 02:45:27;;;;;;;;;;;;;;;20.69;49.36;100496.63;2084864;28;20297;-39
2021/11/20 02:46:29;;;;;;;;;;;;;;;20.69;49.47;100502.97;2085495;28;19924;-38
2021/11/20 02:47:32;;;;;;;;;;;;;;;20.70;49.51;100503.81;2083609;28;20003;-39
2021/11/20 02:48:33;;;;;;;;;;;;;;;20.71;49.43;100502.81;2084623;28;19921;-39
2021/11/20 02:49:33;;;;;;;;;;;;;;;20.72;49.14;100496.31;2095391;28;19904;-39
2021/11/20 02:50:37;;;;;;;;;;;;;;;20.73;49.08;100492.59;2100447;28;19919;-39
2021/11/20 02:51:50;;;;;;;;;;;;;;;20.73;49.25;100492.59;2081989;28;19948;-39
2021/11/20 02:52:50;;;;;;;;;;;;;;;20.74;49.29;100491.56;2085900;28;19909;-39
2021/11/20 02:53:55;;;;;;;;;;;;;;;20.75;49.16;100493.31;2082930;28;20390;-39
2021/11/20 02:54:55;;;;;;;;;;;;;;;20.75;49.18;100491.41;2080614;28;19917;-39
2021/11/20 02:55:55;;;;;;;;;;;;;;;20.76;49.27;100495.00;2083498;28;20362;-39
2021/11/20 02:57:02;;;;;;;;;;;;;;;20.76;49.12;100492.28;2096666;27;19920;-39
2021/11/20 02:58:02;;;;;;;;;;;;;;;20.76;49.06;100486.78;2094249;28;20311;-39
2021/11/20 02:59:04;;;;;;;;;;;;;;;20.75;49.34;100490.56;2082857;28;19924;-39
2021/11/20 03:00:07;;;;;;;;;;;;;;;20.75;49.11;100496.91;2080874;28;19923;-39
2021/11/20 03:01:09;;;;;;;;;;;;;;;20.74;49.05;100488.81;2086532;28;20373;-39
2021/11/20 03:02:10;;;;;;;;;;;;;;;20.74;49.04;100497.91;2089508;28;19916;-39
2021/11/20 03:03:10;;;;;;;;;;;;;;;20.75;49.32;100496.91;2084849;28;20297;-39
2021/11/20 03:04:12;;;;;;;;;;;;;;;20.73;49.20;100496.19;2089623;28;20229;-39
2021/11/20 03:05:12;;;;;;;;;;;;;;;20.71;49.35;100494.59;2087245;28;19969;-39
2021/11/20 03:06:13;;;;;;;;;;;;;;;20.71;49.20;100494.59;2090221;28;19912;-39
2021/11/20 03:07:14;;;;;;;;;;;;;;;20.71;49.33;100489.13;2076417;28;19917;-39
2021/11/20 03:08:14;;;;;;;;;;;;;;;20.70;49.32;100481.91;2073396;28;19909;-39
2021/11/20 03:09:14;;;;;;;;;;;;;;;20.70;49.14;100481.91;2079892;28;19971;-39
2021/11/20 03:10:15;;;;;;;;;;;;;;;20.69;49.31;100483.78;2080963;28;19955;-39
2021/11/20 03:11:16;;;;;;;;;;;;;;;20.69;49.21;100480.19;2082922;28;19954;-39
2021/11/20 03:12:16;;;;;;;;;;;;;;;20.69;49.24;100481.06;2086361;28;19916;-39
2021/11/20 03:13:17;;;;;;;;;;;;;;;20.68;49.15;100481.22;2080944;28;20384;-39
2021/11/20 03:14:18;;;;;;;;;;;;;;;20.68;49.44;100483.97;2085855;28;20314;-39
2021/11/20 03:15:19;;;;;;;;;;;;;;;20.67;49.38;100487.69;2084967;28;19920;-39
2021/11/20 03:16:19;;;;;;;;;;;;;;;20.67;49.21;100484.97;2084543;28;19963;-39
2021/11/20 03:17:19;;;;;;;;;;;;;;;20.66;49.22;100485.97;2087209;28;19917;-39
2021/11/20 03:18:20;;;;;;;;;;;;;;;20.66;49.31;100480.50;2083616;28;19923;-39
2021/11/20 03:19:22;;;;;;;;;;;;;;;20.64;49.47;100474.31;2084473;28;20014;-39
2021/11/20 03:20:22;;;;;;;;;;;;;;;20.64;49.49;100471.56;2085952;28;19916;-39
2021/11/20 03:21:23;;;;;;;;;;;;;;;20.63;49.30;100472.56;2082780;28;19978;-39
2021/11/20 03:22:25;;;;;;;;;;;;;;;20.63;49.49;100480.78;2087364;28;19977;-39
2021/11/20 03:23:31;;;;;;;;;;;;;;;20.62;49.50;100479.06;2082768;28;20813;-39
2021/11/20 03:24:32;;;;;;;;;;;;;;;20.62;49.59;100479.06;2081828;28;19916;-39
2021/11/20 03:25:32;;;;;;;;;;;;;;;20.61;49.42;100477.34;2084938;28;19971;-39
2021/11/20 03:26:33;;;;;;;;;;;;;;;20.61;49.47;100477.34;2078525;28;19917;-39
2021/11/20 03:27:35;;;;;;;;;;;;;;;20.60;49.64;100475.63;2083961;28;19916;-39
2021/11/20 03:28:35;;;;;;;;;;;;;;;20.59;49.56;100473.91;2085882;28;19916;-39
2021/11/20 03:29:35;;;;;;;;;;;;;;;20.57;49.47;100470.44;2083295;28;19952;-38
2021/11/20 03:30:36;;;;;;;;;;;;;;;20.57;49.55;100468.56;2085639;28;20069;-39
2021/11/20 03:31:37;;;;;;;;;;;;;;;20.57;49.64;100470.44;2081446;28;19924;-39
2021/11/20 03:32:39;;;;;;;;;;;;;;;20.56;49.78;100469.59;2084769;28;19916;-39
2021/11/20 03:33:39;;;;;;;;;;;;;;;20.55;49.76;100462.38;2082354;28;19913;-39
2021/11/20 03:34:40;;;;;;;;;;;;;;;20.55;49.55;100467.84;2080194;28;19921;-39
2021/11/20 03:35:42;;;;;;;;;;;;;;;20.54;49.68;100466.09;2082301;28;19923;-39
2021/11/20 03:36:42;;;;;;;;;;;;;;;20.53;49.65;100467.97;2075707;28;20247;-39
2021/11/20 03:37:43;;;;;;;;;;;;;;;20.52;49.76;100460.75;2081462;28;19921;-39
2021/11/20 03:38:43;;;;;;;;;;;;;;;20.51;49.67;100459.06;2084020;28;20000;-39
2021/11/20 03:39:44;;;;;;;;;;;;;;;20.51;49.70;100461.78;2083461;28;19909;-39
2021/11/20 03:40:44;;;;;;;;;;;;;;;20.50;49.87;100454.56;2081280;28;20379;-39
2021/11/20 03:41:45;;;;;;;;;;;;;;;20.49;49.62;100458.34;2082420;28;20025;-39
2021/11/20 03:42:46;;;;;;;;;;;;;;;20.48;49.68;100459.34;2080624;28;20399;-39
2021/11/20 03:43:46;;;;;;;;;;;;;;;20.48;49.70;100462.09;2078643;28;19920;-38
2021/11/20 03:44:47;;;;;;;;;;;;;;;20.48;49.73;100458.47;2080688;28;20038;-39
2021/11/20 03:45:47;;;;;;;;;;;;;;;20.46;49.85;100458.63;2085809;28;19989;-39
2021/11/20 03:46:47;;;;;;;;;;;;;;;20.47;49.94;100457.63;2079923;28;19923;-39
2021/11/20 03:47:48;;;;;;;;;;;;;;;20.47;49.94;100456.75;2079453;28;19920;-39
2021/11/20 03:48:49;;;;;;;;;;;;;;;20.46;49.94;100458.63;2083632;28;20086;-39
2021/11/20 03:49:50;;;;;;;;;;;;;;;20.44;49.79;100460.66;2084584;28;19920;-39
2021/11/20 03:50:50;;;;;;;;;;;;;;;20.45;50.02;100462.38;2078518;28;19987;-38
2021/11/20 03:51:50;;;;;;;;;;;;;;;20.44;50.04;100454.31;2079719;28;19916;-39
2021/11/20 03:52:51;;;;;;;;;;;;;;;20.44;49.88;100455.19;2084124;28;20258;-39
2021/11/20 03:53:52;;;;;;;;;;;;;;;20.43;49.80;100453.47;2082392;28;19923;-39
2021/11/20 03:54:52;;;;;;;;;;;;;;;20.43;49.91;100464.44;2081468;28;19924;-39
2021/11/20 03:55:53;;;;;;;;;;;;;;;20.43;49.90;100458.06;2084058;28;19916;-39
2021/11/20 03:56:53;;;;;;;;;;;;;;;20.41;49.94;100466.44;2081326;28;19916;-39
2021/11/20 03:57:54;;;;;;;;;;;;;;;20.41;50.06;100460.97;2084298;28;19912;-39
2021/11/20 03:58:54;;;;;;;;;;;;;;;20.41;50.13;100460.97;2083026;28;20636;-39
2021/11/20 03:59:54;;;;;;;;;;;;;;;20.41;50.03;100460.13;2083898;28;20793;-39
2021/11/20 04:01:00;;;;;;;;;;;;;;;20.39;50.04;100460.25;2084144;28;20356;-39
2021/11/20 04:02:00;;;;;;;;;;;;;;;20.38;49.96;100461.25;2083601;28;19905;-39
2021/11/20 04:03:00;;;;;;;;;;;;;;;20.39;50.02;100459.41;2085116;28;19908;-39
2021/11/20 04:04:01;;;;;;;;;;;;;;;20.37;50.17;100458.69;2085607;28;19966;-39
2021/11/20 04:05:03;;;;;;;;;;;;;;;20.37;50.12;100454.06;2080281;28;20672;-39
2021/11/20 04:06:03;;;;;;;;;;;;;;;20.36;50.09;100455.09;2088013;28;20191;-39
2021/11/20 04:07:03;;;;;;;;;;;;;;;20.35;50.12;100456.06;2084431;28;19920;-39
2021/11/20 04:08:04;;;;;;;;;;;;;;;20.35;50.16;100453.34;2085390;28;19908;-39
2021/11/20 04:09:12;;;;;;;;;;;;;;;20.34;50.12;100449.75;2080076;28;19908;-39
2021/11/20 04:10:12;;;;;;;;;;;;;;;20.33;50.24;100453.50;2082541;28;20643;-39
2021/11/20 04:11:14;;;;;;;;;;;;;;;20.32;50.15;100451.75;2085169;28;19984;-39
2021/11/20 04:12:14;;;;;;;;;;;;;;;20.32;50.34;100456.38;2082333;28;20269;-39
2021/11/20 04:13:15;;;;;;;;;;;;;;;20.31;50.31;100450.06;2084346;28;19916;-39
2021/11/20 04:14:16;;;;;;;;;;;;;;;20.32;50.14;100459.13;2088695;28;19908;-41
2021/11/20 04:15:19;;;;;;;;;;;;;;;20.30;50.06;100453.78;2078815;28;19924;-39
2021/11/20 04:16:21;;;;;;;;;;;;;;;20.30;50.15;100463.88;2085474;28;19955;-39
2021/11/20 04:17:21;;;;;;;;;;;;;;;20.29;50.20;100457.53;2084015;28;20440;-39
2021/11/20 04:18:22;;;;;;;;;;;;;;;20.30;50.31;100452.94;2083711;28;20319;-39
2021/11/20 04:19:22;;;;;;;;;;;;;;;20.28;50.26;100463.16;2085608;28;19951;-39
2021/11/20 04:20:24;;;;;;;;;;;;;;;20.28;50.30;100460.41;2085442;28;19916;-39
2021/11/20 04:21:24;;;;;;;;;;;;;;;20.26;50.22;100463.31;2087611;28;19917;-39
2021/11/20 04:22:24;;;;;;;;;;;;;;;20.27;50.43;100458.72;2081361;28;19956;-39
2021/11/20 04:23:25;;;;;;;;;;;;;;;20.26;50.42;100456.97;2077327;28;19978;-39
2021/11/20 04:24:25;;;;;;;;;;;;;;;20.25;50.45;100461.56;2081155;28;19966;-39
2021/11/20 04:25:26;;;;;;;;;;;;;;;20.24;50.36;100459.88;2079528;28;20331;-39
2021/11/20 04:26:28;;;;;;;;;;;;;;;20.25;50.23;100463.47;2083328;28;19947;-39
2021/11/20 04:27:28;;;;;;;;;;;;;;;20.24;50.20;100464.47;2083699;28;20007;-39
2021/11/20 04:28:28;;;;;;;;;;;;;;;20.23;50.36;100462.75;2083702;28;19917;-39
2021/11/20 04:29:29;;;;;;;;;;;;;;;20.23;50.36;100457.28;2084821;28;20242;-39
2021/11/20 04:30:29;;;;;;;;;;;;;;;20.22;50.14;100463.78;2082399;28;19967;-39
2021/11/20 04:31:29;;;;;;;;;;;;;;;20.22;50.18;100471.97;2083773;28;19916;-39
2021/11/20 04:32:30;;;;;;;;;;;;;;;20.21;50.42;100472.97;2085238;28;19913;-39
2021/11/20 04:33:30;;;;;;;;;;;;;;;20.21;50.23;100464.75;2087753;28;19912;-39
2021/11/20 04:34:32;;;;;;;;;;;;;;;20.20;50.23;100463.91;2100353;28;20008;-39
2021/11/20 04:35:33;;;;;;;;;;;;;;;20.20;50.24;100471.25;2083120;28;19927;-39
2021/11/20 04:36:34;;;;;;;;;;;;;;;20.19;50.36;100469.53;2079341;28;19920;-39
2021/11/20 04:37:34;;;;;;;;;;;;;;;20.18;50.42;100470.53;2081268;28;20160;-39
2021/11/20 04:38:35;;;;;;;;;;;;;;;20.19;50.27;100475.03;2085429;28;19917;-39
2021/11/20 04:39:35;;;;;;;;;;;;;;;20.18;50.37;100476.00;2084315;28;19917;-39
2021/11/20 04:40:36;;;;;;;;;;;;;;;20.19;50.32;100475.03;2081669;28;19912;-39
2021/11/20 04:41:36;;;;;;;;;;;;;;;20.18;50.23;100471.41;2082404;28;20310;-39
2021/11/20 04:42:37;;;;;;;;;;;;;;;20.20;50.41;100474.00;2078895;28;20224;-40
2021/11/20 04:43:37;;;;;;;;;;;;;;;20.20;50.44;100484.94;2085223;28;20021;-39
2021/11/20 04:44:37;;;;;;;;;;;;;;;20.20;50.32;100474.84;2083578;28;20358;-39
2021/11/20 04:45:38;;;;;;;;;;;;;;;20.20;50.34;100468.53;2081778;28;19921;-39
2021/11/20 04:46:38;;;;;;;;;;;;;;;20.21;50.33;100464.75;2082084;28;19985;-39
2021/11/20 04:47:39;;;;;;;;;;;;;;;20.22;50.32;100477.47;2083769;28;19917;-39
2021/11/20 04:48:39;;;;;;;;;;;;;;;20.23;50.40;100484.63;2082462;28;19977;-39
2021/11/20 04:49:40;;;;;;;;;;;;;;;20.22;50.14;100471.97;2084874;28;19923;-39
2021/11/20 04:50:40;;;;;;;;;;;;;;;20.23;50.30;100473.69;2079062;28;19957;-39
2021/11/20 04:51:41;;;;;;;;;;;;;;;20.23;50.28;100473.69;2085160;28;20007;-39
2021/11/20 04:52:41;;;;;;;;;;;;;;;20.23;50.33;100480.03;2080432;28;19920;-39
2021/11/20 04:53:43;;;;;;;;;;;;;;;20.22;50.13;100471.97;2079790;28;19955;-39
2021/11/20 04:54:44;;;;;;;;;;;;;;;20.22;50.15;100471.97;2076754;28;19920;-39
2021/11/20 04:55:45;;;;;;;;;;;;;;;20.23;50.14;100473.69;2081504;28;19916;-39
2021/11/20 04:56:45;;;;;;;;;;;;;;;20.23;50.34;100480.03;2082583;28;19947;-39
2021/11/20 04:57:46;;;;;;;;;;;;;;;20.23;50.21;100474.53;2083928;28;19924;-39
2021/11/20 04:58:47;;;;;;;;;;;;;;;20.22;50.36;100477.47;2082437;28;20210;-39
2021/11/20 04:59:47;;;;;;;;;;;;;;;20.22;50.41;100478.31;2084162;28;19920;-39
2021/11/20 05:00:50;;;;;;;;;;;;;;;20.21;50.35;100478.44;2084607;28;20229;-39
2021/11/20 05:01:50;;;;;;;;;;;;;;;20.20;50.35;100468.53;2083380;28;19926;-39
2021/11/20 05:02:51;;;;;;;;;;;;;;;20.22;50.26;100471.97;2085343;28;19916;-39
2021/11/20 05:03:53;;;;;;;;;;;;;;;20.19;50.18;100473.13;2082328;28;20310;-39
2021/11/20 05:04:53;;;;;;;;;;;;;;;20.19;50.39;100481.34;2084626;28;19916;-39
2021/11/20 05:05:54;;;;;;;;;;;;;;;20.19;50.11;100472.28;2084304;28;19913;-39
2021/11/20 05:06:54;;;;;;;;;;;;;;;20.19;50.35;100488.72;2083615;28;19911;-39
2021/11/20 05:07:55;;;;;;;;;;;;;;;20.18;50.21;100481.50;2084937;28;19939;-39
2021/11/20 05:08:59;;;;;;;;;;;;;;;20.17;50.47;100479.78;2080964;28;20012;-39
2021/11/20 05:10:00;;;;;;;;;;;;;;;20.15;50.39;100477.16;2085919;28;21208;-39
2021/11/20 05:11:01;;;;;;;;;;;;;;;20.16;50.45;100488.97;2077600;28;20237;-39
2021/11/20 05:12:03;;;;;;;;;;;;;;;20.15;50.48;100493.59;2079523;28;19917;-39
2021/11/20 05:13:04;;;;;;;;;;;;;;;20.15;50.47;100487.25;2085777;28;19919;-39
2021/11/20 05:14:04;;;;;;;;;;;;;;;20.14;50.33;100491.88;2083903;28;20123;-39
2021/11/20 05:15:05;;;;;;;;;;;;;;;20.13;50.41;100488.25;2082409;28;19917;-39
2021/11/20 05:16:06;;;;;;;;;;;;;;;20.12;50.45;100489.28;2085651;28;19916;-39
2021/11/20 05:17:06;;;;;;;;;;;;;;;20.12;50.40;100493.91;2082770;28;19948;-39
2021/11/20 05:18:07;;;;;;;;;;;;;;;20.12;50.47;100499.38;2083196;28;19916;-39
2021/11/20 05:19:07;;;;;;;;;;;;;;;20.11;50.53;100487.56;2086123;28;20063;-39